Time;durP1;ratioP1;P1;durP2;ratioP2;P2;SDS_P1;SDS_P2;PMS_P1;PMS_P2;Temp;Humidity;BMP_temperature;BMP_pressure;BME280_temperature;BME280_humidity;BME280_pressure;Samples;Min_cycle;Max_cycle;Signal;HPM_P1;HPM_P2
2023/05/15 00:01:31;;;;;;;16.05;14.50;;;;;;;;;;5042424;28;20211;-70
2023/05/15 00:03:58;;;;;;;16.42;14.93;;;;;;;;;;5043676;28;20226;-69
2023/05/15 00:06:26;;;;;;;16.13;14.63;;;;;;;;;;5048583;28;20192;-70
2023/05/15 00:08:54;;;;;;;15.95;14.43;;;;;;;;;;5049014;28;20195;-69
2023/05/15 00:11:22;;;;;;;16.08;14.48;;;;;;;;;;5047363;28;20208;-70
2023/05/15 00:13:49;;;;;;;16.77;15.02;;;;;;;;;;5046266;28;20207;-70
2023/05/15 00:16:18;;;;;;;15.65;14.15;;;;;;;;;;5048765;28;20241;-69
2023/05/15 00:18:45;;;;;;;15.93;14.25;;;;;;;;;;5047563;28;20223;-69
2023/05/15 00:21:12;;;;;;;15.32;13.75;;;;;;;;;;5046522;28;20204;-70
2023/05/15 00:23:39;;;;;;;16.45;14.77;;;;;;;;;;5047370;28;20215;-69
2023/05/15 00:26:07;;;;;;;16.08;14.68;;;;;;;;;;5049428;28;20203;-70
2023/05/15 00:28:34;;;;;;;17.30;15.63;;;;;;;;;;5048691;28;20207;-70
2023/05/15 00:31:01;;;;;;;16.75;15.07;;;;;;;;;;5045656;28;20211;-69
2023/05/15 00:33:30;;;;;;;17.92;16.25;;;;;;;;;;5045329;28;20215;-70
2023/05/15 00:35:57;;;;;;;16.23;14.73;;;;;;;;;;5041472;28;20231;-70
2023/05/15 00:38:24;;;;;;;17.23;15.63;;;;;;;;;;5042369;28;20232;-69
2023/05/15 00:40:52;;;;;;;18.23;16.52;;;;;;;;;;5042646;28;20207;-69
2023/05/15 00:43:19;;;;;;;18.48;16.17;;;;;;;;;;5046158;28;20208;-70
2023/05/15 00:45:46;;;;;;;18.20;16.40;;;;;;;;;;5045135;28;20207;-70
2023/05/15 00:48:15;;;;;;;17.65;15.85;;;;;;;;;;5043425;28;20231;-70
2023/05/15 00:50:44;;;;;;;18.23;16.42;;;;;;;;;;5046381;28;20211;-70
2023/05/15 00:53:11;;;;;;;15.93;14.43;;;;;;;;;;5043842;28;20204;-70
2023/05/15 00:55:39;;;;;;;18.63;16.73;;;;;;;;;;5045022;28;20202;-71
2023/05/15 00:58:07;;;;;;;16.48;14.80;;;;;;;;;;5041518;28;20314;-70
2023/05/15 01:00:34;;;;;;;16.15;14.57;;;;;;;;;;5045341;28;20211;-71
2023/05/15 01:03:02;;;;;;;18.10;16.40;;;;;;;;;;5047320;28;20203;-70
2023/05/15 01:05:29;;;;;;;17.77;15.93;;;;;;;;;;5052559;28;20203;-70
2023/05/15 01:08:02;;;;;;;19.05;17.13;;;;;;;;;;5052734;28;20203;-70
2023/05/15 01:10:29;;;;;;;19.27;17.27;;;;;;;;;;5049373;28;20200;-69
2023/05/15 01:12:56;;;;;;;19.40;17.40;;;;;;;;;;5053199;28;20207;-69
2023/05/15 01:15:24;;;;;;;20.10;18.20;;;;;;;;;;5046175;28;20203;-69
2023/05/15 01:17:51;;;;;;;24.02;21.48;;;;;;;;;;5048404;28;20239;-69
2023/05/15 01:20:19;;;;;;;20.83;18.73;;;;;;;;;;5049307;28;20261;-68
2023/05/15 01:22:53;;;;;;;23.80;21.35;;;;;;;;;;5047780;28;20210;-68
2023/05/15 01:25:38;;;;;;;19.55;17.58;;;;;;;;;;5041959;28;20206;-68
2023/05/15 01:28:10;;;;;;;22.88;20.55;;;;;;;;;;5046674;28;20196;-69
2023/05/15 01:30:38;;;;;;;24.77;22.27;;;;;;;;;;5046432;28;20200;-68
2023/05/15 01:33:07;;;;;;;23.65;21.00;;;;;;;;;;5047549;28;20215;-69
2023/05/15 01:35:36;;;;;;;22.55;20.33;;;;;;;;;;5044598;28;20218;-68
2023/05/15 01:38:08;;;;;;;26.15;23.35;;;;;;;;;;5049130;28;20221;-68
2023/05/15 01:40:35;;;;;;;24.25;21.77;;;;;;;;;;5048697;28;20214;-69
2023/05/15 01:43:06;;;;;;;23.95;21.55;;;;;;;;;;5046947;28;20199;-69
2023/05/15 01:45:35;;;;;;;23.00;20.60;;;;;;;;;;5046151;28;20200;-69
2023/05/15 01:48:05;;;;;;;21.42;19.23;;;;;;;;;;5045829;28;20211;-69
2023/05/15 01:50:33;;;;;;;24.27;21.80;;;;;;;;;;5048139;28;20208;-69
2023/05/15 01:53:01;;;;;;;22.02;19.60;;;;;;;;;;5048233;28;20207;-70
2023/05/15 01:55:30;;;;;;;20.50;18.42;;;;;;;;;;5048087;28;20200;-69
2023/05/15 01:57:57;;;;;;;22.50;20.35;;;;;;;;;;5045833;28;20223;-69
2023/05/15 02:00:25;;;;;;;21.27;19.10;;;;;;;;;;5048642;28;20207;-69
2023/05/15 02:02:54;;;;;;;23.67;20.02;;;;;;;;;;5050030;28;20212;-69
2023/05/15 02:05:21;;;;;;;22.80;20.30;;;;;;;;;;5050536;28;20203;-69
2023/05/15 02:07:49;;;;;;;22.17;19.98;;;;;;;;;;5051817;28;20263;-68
2023/05/15 02:10:17;;;;;;;22.95;20.60;;;;;;;;;;5050702;28;20210;-69
2023/05/15 02:12:44;;;;;;;22.33;20.00;;;;;;;;;;5047190;28;20366;-69
2023/05/15 02:15:12;;;;;;;22.27;20.08;;;;;;;;;;5045119;28;20210;-69
2023/05/15 02:17:39;;;;;;;22.05;19.58;;;;;;;;;;5048250;28;20263;-68
2023/05/15 02:20:09;;;;;;;22.20;19.88;;;;;;;;;;5047302;28;20210;-69
2023/05/15 02:22:36;;;;;;;23.80;21.35;;;;;;;;;;5048162;28;20203;-68
2023/05/15 02:25:03;;;;;;;22.05;19.75;;;;;;;;;;5050437;28;20210;-69
2023/05/15 02:27:34;;;;;;;18.80;17.02;;;;;;;;;;5048722;28;20214;-69
2023/05/15 02:30:07;;;;;;;16.80;15.18;;;;;;;;;;5049208;28;20203;-70
2023/05/15 02:32:39;;;;;;;15.57;14.07;;;;;;;;;;5049571;28;20204;-69
2023/05/15 02:35:13;;;;;;;13.98;12.55;;;;;;;;;;5049360;28;20215;-69
2023/05/15 02:37:40;;;;;;;12.30;11.13;;;;;;;;;;5051437;28;20203;-70
2023/05/15 02:40:09;;;;;;;12.07;10.98;;;;;;;;;;5048073;28;20203;-69
2023/05/15 02:42:36;;;;;;;12.95;11.52;;;;;;;;;;5042550;28;20230;-70
2023/05/15 02:45:04;;;;;;;11.65;10.65;;;;;;;;;;5043933;28;20203;-70
2023/05/15 02:47:31;;;;;;;12.73;11.50;;;;;;;;;;5046952;28;20199;-69
2023/05/15 02:49:59;;;;;;;12.65;11.60;;;;;;;;;;5047760;28;20203;-70
2023/05/15 02:52:27;;;;;;;12.98;11.85;;;;;;;;;;5043411;28;20204;-69
2023/05/15 02:54:54;;;;;;;12.68;11.50;;;;;;;;;;5048335;28;20203;-69
2023/05/15 02:57:21;;;;;;;12.30;11.10;;;;;;;;;;5048597;28;20207;-69
2023/05/15 02:59:49;;;;;;;12.23;11.02;;;;;;;;;;5044141;28;20239;-70
2023/05/15 03:02:16;;;;;;;12.38;11.18;;;;;;;;;;5048762;28;20203;-69
2023/05/15 03:04:43;;;;;;;12.90;11.88;;;;;;;;;;5044682;28;20203;-69
2023/05/15 03:07:11;;;;;;;13.55;12.30;;;;;;;;;;5045273;28;20310;-70
2023/05/15 03:09:39;;;;;;;15.32;13.80;;;;;;;;;;5047493;28;20199;-69
2023/05/15 03:12:07;;;;;;;13.70;12.48;;;;;;;;;;5047561;28;20211;-70
2023/05/15 03:14:34;;;;;;;14.20;13.00;;;;;;;;;;5045132;28;20214;-70
2023/05/15 03:17:01;;;;;;;15.07;13.57;;;;;;;;;;5044342;28;20231;-70
2023/05/15 03:19:28;;;;;;;17.15;15.63;;;;;;;;;;5045374;28;20234;-69
2023/05/15 03:21:55;;;;;;;17.80;15.98;;;;;;;;;;5045359;28;20199;-69
2023/05/15 03:24:22;;;;;;;16.80;15.10;;;;;;;;;;5047388;28;20207;-69
2023/05/15 03:26:51;;;;;;;16.85;15.15;;;;;;;;;;5043399;28;20214;-70
2023/05/15 03:29:18;;;;;;;16.83;14.93;;;;;;;;;;5044905;28;20226;-69
2023/05/15 03:31:45;;;;;;;16.27;14.75;;;;;;;;;;5043594;28;20207;-70
2023/05/15 03:34:12;;;;;;;18.25;16.35;;;;;;;;;;5048396;28;20204;-69
2023/05/15 03:36:39;;;;;;;18.15;16.45;;;;;;;;;;5046051;28;20207;-69
2023/05/15 03:39:07;;;;;;;18.17;15.98;;;;;;;;;;5046167;28;20227;-70
2023/05/15 03:41:34;;;;;;;18.20;16.50;;;;;;;;;;5046446;28;20218;-70
2023/05/15 03:44:03;;;;;;;19.25;17.45;;;;;;;;;;5044014;28;20208;-70
2023/05/15 03:46:30;;;;;;;19.65;17.65;;;;;;;;;;5041045;28;20203;-71
2023/05/15 03:48:57;;;;;;;20.10;18.13;;;;;;;;;;5046513;28;20207;-70
2023/05/15 03:51:24;;;;;;;21.13;19.02;;;;;;;;;;5045134;28;20290;-69
2023/05/15 03:53:52;;;;;;;22.00;19.75;;;;;;;;;;5047506;28;20214;-69
2023/05/15 03:56:20;;;;;;;21.08;19.02;;;;;;;;;;5047645;28;20210;-70
2023/05/15 03:58:47;;;;;;;19.85;17.92;;;;;;;;;;5042988;28;20326;-70
2023/05/15 04:01:16;;;;;;;19.35;17.42;;;;;;;;;;5046205;28;20214;-69
2023/05/15 04:03:43;;;;;;;19.42;17.42;;;;;;;;;;5051508;28;20214;-70
2023/05/15 04:06:10;;;;;;;20.33;18.10;;;;;;;;;;5048674;28;20203;-69
2023/05/15 04:08:37;;;;;;;19.98;17.90;;;;;;;;;;5048634;28;20192;-70
2023/05/15 04:11:04;;;;;;;20.08;18.08;;;;;;;;;;5049393;28;20210;-70
2023/05/15 04:13:32;;;;;;;22.48;20.13;;;;;;;;;;5048233;28;20238;-70
2023/05/15 04:15:59;;;;;;;21.10;18.52;;;;;;;;;;5043510;28;20254;-69
2023/05/15 04:18:28;;;;;;;21.48;19.40;;;;;;;;;;5047984;28;20220;-70
2023/05/15 04:20:55;;;;;;;20.75;18.75;;;;;;;;;;5040295;28;20211;-71
2023/05/15 04:23:22;;;;;;;20.00;17.97;;;;;;;;;;5044138;28;20207;-70
2023/05/15 04:25:50;;;;;;;21.67;19.37;;;;;;;;;;5041096;28;20211;-70
2023/05/15 04:28:18;;;;;;;20.70;18.65;;;;;;;;;;5045910;28;20199;-70
2023/05/15 04:30:45;;;;;;;21.67;19.47;;;;;;;;;;5042977;28;20207;-70
2023/05/15 04:33:13;;;;;;;21.63;19.33;;;;;;;;;;5043762;28;20231;-70
2023/05/15 04:35:41;;;;;;;21.42;19.15;;;;;;;;;;5041691;28;20207;-70
2023/05/15 04:38:08;;;;;;;20.27;18.17;;;;;;;;;;5042279;28;20214;-69
2023/05/15 04:40:36;;;;;;;22.63;20.25;;;;;;;;;;5049596;28;20229;-69
2023/05/15 04:43:03;;;;;;;20.85;18.75;;;;;;;;;;5044658;28;20218;-69
2023/05/15 04:45:30;;;;;;;20.80;18.75;;;;;;;;;;5046814;28;20203;-69
2023/05/15 04:47:57;;;;;;;21.35;19.23;;;;;;;;;;5044852;28;20218;-70
2023/05/15 04:50:24;;;;;;;30.85;27.60;;;;;;;;;;5049076;28;20204;-69
2023/05/15 04:52:53;;;;;;;26.92;24.13;;;;;;;;;;5046014;28;20307;-69
2023/05/15 04:55:20;;;;;;;28.17;25.48;;;;;;;;;;5051181;28;20208;-70
2023/05/15 04:57:47;;;;;;;30.98;27.75;;;;;;;;;;5045934;28;20206;-70
2023/05/15 05:00:15;;;;;;;27.07;24.23;;;;;;;;;;5044100;28;20225;-70
2023/05/15 05:02:43;;;;;;;26.53;23.73;;;;;;;;;;5048272;28;20203;-69
2023/05/15 05:05:10;;;;;;;26.00;23.03;;;;;;;;;;5041859;28;20211;-69
2023/05/15 05:07:37;;;;;;;26.00;23.42;;;;;;;;;;5042966;28;20214;-70
2023/05/15 05:10:06;;;;;;;28.98;25.92;;;;;;;;;;5049287;28;20195;-70
2023/05/15 05:12:33;;;;;;;29.38;26.48;;;;;;;;;;5048305;28;20206;-69
2023/05/15 05:15:00;;;;;;;27.42;24.73;;;;;;;;;;5049104;28;20203;-69
2023/05/15 05:17:28;;;;;;;33.38;29.65;;;;;;;;;;5044481;28;20234;-69
2023/05/15 05:19:55;;;;;;;30.25;27.25;;;;;;;;;;5042184;28;20223;-69
2023/05/15 05:22:22;;;;;;;30.75;27.48;;;;;;;;;;5039067;28;20199;-69
2023/05/15 05:24:49;;;;;;;34.03;30.35;;;;;;;;;;5047039;28;20211;-68
2023/05/15 05:27:18;;;;;;;33.45;29.55;;;;;;;;;;5043369;28;20274;-69
2023/05/15 05:29:45;;;;;;;32.47;28.98;;;;;;;;;;5033204;28;20223;-69
2023/05/15 05:32:12;;;;;;;31.13;28.00;;;;;;;;;;5042908;28;20210;-69
2023/05/15 05:34:40;;;;;;;33.72;30.13;;;;;;;;;;5044952;28;20214;-69
2023/05/15 05:37:07;;;;;;;30.20;27.25;;;;;;;;;;5041791;28;20203;-69
2023/05/15 05:39:34;;;;;;;31.10;27.88;;;;;;;;;;5049366;28;20220;-68
2023/05/15 05:42:01;;;;;;;33.13;29.58;;;;;;;;;;5046863;28;20211;-68
2023/05/15 05:44:30;;;;;;;32.53;29.13;;;;;;;;;;5046916;28;20207;-68
2023/05/15 05:46:57;;;;;;;29.65;26.70;;;;;;;;;;5046796;28;20199;-68
2023/05/15 05:49:24;;;;;;;31.83;28.60;;;;;;;;;;5045336;28;20202;-69
2023/05/15 05:51:51;;;;;;;34.45;30.95;;;;;;;;;;5047817;28;20215;-68
2023/05/15 05:54:18;;;;;;;33.42;29.92;;;;;;;;;;5043126;28;20206;-68
2023/05/15 05:56:46;;;;;;;34.40;30.83;;;;;;;;;;5046431;28;20215;-68
2023/05/15 05:59:13;;;;;;;34.05;30.48;;;;;;;;;;5046016;28;20258;-68
2023/05/15 06:01:42;;;;;;;34.15;30.65;;;;;;;;;;5052334;28;20210;-68
2023/05/15 06:04:09;;;;;;;31.35;28.17;;;;;;;;;;5051367;28;20306;-68
2023/05/15 06:06:36;;;;;;;30.40;27.35;;;;;;;;;;5051273;28;20210;-68
2023/05/15 06:09:04;;;;;;;29.75;26.70;;;;;;;;;;5052487;28;20202;-63
2023/05/15 06:11:31;;;;;;;30.80;27.75;;;;;;;;;;5051360;28;20208;-62
2023/05/15 06:13:58;;;;;;;33.33;28.65;;;;;;;;;;5051196;28;20203;-62
2023/05/15 06:16:25;;;;;;;31.02;27.73;;;;;;;;;;5049804;28;20238;-62
2023/05/15 06:18:54;;;;;;;32.78;29.27;;;;;;;;;;5049900;28;20219;-62
2023/05/15 06:21:22;;;;;;;31.20;28.00;;;;;;;;;;5049368;28;20204;-61
2023/05/15 06:23:49;;;;;;;29.80;26.63;;;;;;;;;;5050424;28;20230;-62
2023/05/15 06:26:16;;;;;;;29.77;26.88;;;;;;;;;;5039381;28;20215;-62
2023/05/15 06:28:43;;;;;;;31.70;28.48;;;;;;;;;;5042682;28;20200;-62
2023/05/15 06:31:10;;;;;;;31.52;28.40;;;;;;;;;;5049457;28;20202;-62
2023/05/15 06:33:38;;;;;;;30.45;27.30;;;;;;;;;;5051682;28;20204;-62
2023/05/15 06:36:06;;;;;;;29.92;27.02;;;;;;;;;;5051190;28;20204;-61
2023/05/15 06:38:34;;;;;;;28.80;25.95;;;;;;;;;;5039675;28;20196;-61
2023/05/15 06:41:01;;;;;;;24.85;22.45;;;;;;;;;;5043539;28;20224;-61
2023/05/15 06:43:28;;;;;;;28.45;25.63;;;;;;;;;;5038477;28;20196;-62
2023/05/15 06:45:55;;;;;;;27.67;25.08;;;;;;;;;;5045178;28;20228;-62
2023/05/15 06:48:22;;;;;;;28.63;25.85;;;;;;;;;;5045779;28;20211;-62
2023/05/15 06:50:49;;;;;;;29.55;26.67;;;;;;;;;;5048753;28;20202;-62
2023/05/15 06:53:19;;;;;;;31.65;28.27;;;;;;;;;;5043553;28;20220;-62
2023/05/15 06:55:46;;;;;;;27.88;25.15;;;;;;;;;;5045252;28;20214;-63
2023/05/15 06:58:16;;;;;;;30.42;27.33;;;;;;;;;;5043816;28;20214;-63
2023/05/15 07:00:43;;;;;;;26.35;23.75;;;;;;;;;;5047687;28;20223;-63
2023/05/15 07:03:13;;;;;;;30.38;27.40;;;;;;;;;;5050705;28;20199;-62
2023/05/15 07:05:40;;;;;;;30.05;26.92;;;;;;;;;;5045572;28;20200;-62
2023/05/15 07:08:07;;;;;;;26.13;23.70;;;;;;;;;;5044974;28;20211;-62
2023/05/15 07:10:35;;;;;;;28.00;25.27;;;;;;;;;;5045122;28;20200;-62
2023/05/15 07:13:03;;;;;;;29.60;26.63;;;;;;;;;;5047477;28;20211;-62
2023/05/15 07:15:30;;;;;;;28.27;25.58;;;;;;;;;;5049589;28;20235;-62
2023/05/15 07:17:57;;;;;;;28.13;25.23;;;;;;;;;;5048155;28;20231;-62
2023/05/15 07:20:25;;;;;;;27.35;24.25;;;;;;;;;;5048759;28;20234;-62
2023/05/15 07:22:52;;;;;;;30.83;27.73;;;;;;;;;;5048714;28;20239;-62
2023/05/15 07:25:19;;;;;;;28.88;26.17;;;;;;;;;;5048826;28;20208;-62
2023/05/15 07:27:47;;;;;;;27.23;24.63;;;;;;;;;;5042850;28;20218;-63
2023/05/15 07:30:15;;;;;;;28.17;25.27;;;;;;;;;;5044308;28;20199;-61
2023/05/15 07:32:42;;;;;;;24.63;22.33;;;;;;;;;;5045993;28;20210;-61
2023/05/15 07:35:11;;;;;;;23.65;21.25;;;;;;;;;;5047409;28;20282;-61
2023/05/15 07:37:38;;;;;;;26.83;24.23;;;;;;;;;;5049144;28;20254;-61
2023/05/15 07:40:06;;;;;;;25.95;23.42;;;;;;;;;;5045868;28;20227;-61
2023/05/15 07:42:33;;;;;;;26.35;23.85;;;;;;;;;;5045434;28;20222;-61
2023/05/15 07:45:02;;;;;;;27.35;24.58;;;;;;;;;;5042982;28;20235;-61
2023/05/15 07:47:29;;;;;;;26.30;23.67;;;;;;;;;;5047499;28;20208;-61
2023/05/15 07:49:56;;;;;;;23.52;21.42;;;;;;;;;;5046775;28;20203;-61
2023/05/15 07:52:23;;;;;;;23.45;21.25;;;;;;;;;;5049674;28;20195;-62
2023/05/15 07:54:50;;;;;;;26.65;23.52;;;;;;;;;;5050547;28;20207;-61
2023/05/15 07:57:17;;;;;;;24.88;22.58;;;;;;;;;;5045223;28;20203;-61
2023/05/15 07:59:45;;;;;;;25.63;23.13;;;;;;;;;;5048197;28;20219;-62
2023/05/15 08:02:13;;;;;;;24.70;22.38;;;;;;;;;;5046479;28;20214;-61
2023/05/15 08:04:40;;;;;;;25.23;22.85;;;;;;;;;;5050135;28;20215;-61
2023/05/15 08:07:07;;;;;;;23.30;21.15;;;;;;;;;;5050164;28;20199;-61
2023/05/15 08:09:34;;;;;;;25.20;22.83;;;;;;;;;;5048412;28;20207;-61
2023/05/15 08:12:19;;;;;;;26.13;23.58;;;;;;;;;;5048775;28;20215;-61
2023/05/15 08:14:46;;;;;;;24.80;22.40;;;;;;;;;;5052411;28;20207;-61
2023/05/15 08:17:15;;;;;;;24.05;21.75;;;;;;;;;;5053185;28;20231;-61
2023/05/15 08:19:42;;;;;;;24.92;22.60;;;;;;;;;;5052951;28;20215;-61
2023/05/15 08:22:09;;;;;;;24.05;21.95;;;;;;;;;;5054079;28;20203;-61
2023/05/15 08:24:36;;;;;;;22.55;20.42;;;;;;;;;;5052541;28;20207;-61
2023/05/15 08:27:06;;;;;;;25.88;23.38;;;;;;;;;;5051965;28;20208;-62
2023/05/15 08:29:34;;;;;;;23.05;20.83;;;;;;;;;;5050073;28;20237;-61
2023/05/15 08:32:02;;;;;;;22.33;20.08;;;;;;;;;;5053411;28;20208;-62
2023/05/15 08:34:35;;;;;;;20.90;19.00;;;;;;;;;;5053990;28;20200;-62
2023/05/15 08:37:04;;;;;;;21.58;19.30;;;;;;;;;;5053035;28;20219;-62
2023/05/15 08:39:31;;;;;;;23.33;21.00;;;;;;;;;;5053578;28;20206;-61
2023/05/15 08:42:01;;;;;;;19.60;17.85;;;;;;;;;;5045377;28;20223;-61
2023/05/15 08:44:28;;;;;;;21.50;19.65;;;;;;;;;;5051864;28;20215;-61
2023/05/15 08:46:56;;;;;;;21.00;19.13;;;;;;;;;;5048866;28;20214;-62
2023/05/15 08:49:28;;;;;;;21.45;19.45;;;;;;;;;;5050421;28;20211;-62
2023/05/15 08:51:57;;;;;;;18.08;16.48;;;;;;;;;;5052345;28;20261;-62
2023/05/15 08:54:24;;;;;;;22.38;19.67;;;;;;;;;;5053001;28;20199;-62
2023/05/15 08:56:52;;;;;;;21.23;19.23;;;;;;;;;;5052599;28;20208;-62
2023/05/15 08:59:19;;;;;;;18.83;16.98;;;;;;;;;;5049708;28;20203;-61
2023/05/15 09:01:46;;;;;;;17.80;16.10;;;;;;;;;;5053230;28;20219;-61
2023/05/15 09:04:13;;;;;;;20.55;18.73;;;;;;;;;;5049469;28;20204;-61
2023/05/15 09:06:41;;;;;;;18.55;16.77;;;;;;;;;;5049890;28;20211;-62
2023/05/15 09:09:12;;;;;;;18.13;16.35;;;;;;;;;;5053538;28;20213;-62
2023/05/15 09:11:41;;;;;;;18.95;17.02;;;;;;;;;;5049233;28;20196;-61
2023/05/15 09:14:08;;;;;;;17.95;16.38;;;;;;;;;;5049687;28;20207;-61
2023/05/15 09:16:35;;;;;;;17.90;16.05;;;;;;;;;;5052190;28;20239;-61
2023/05/15 09:19:03;;;;;;;18.60;16.88;;;;;;;;;;5052344;28;20223;-61
2023/05/15 09:21:31;;;;;;;18.58;16.80;;;;;;;;;;5048482;28;20227;-62
2023/05/15 09:24:16;;;;;;;12.43;11.32;;;;;;;;;;5048524;28;20269;-62
2023/05/15 09:26:44;;;;;;;15.13;13.88;;;;;;;;;;5046845;28;20199;-63
2023/05/15 09:29:12;;;;;;;14.38;13.00;;;;;;;;;;5047462;28;20219;-62
2023/05/15 09:31:39;;;;;;;16.55;15.07;;;;;;;;;;5046495;28;20211;-61
2023/05/15 09:34:08;;;;;;;16.95;15.45;;;;;;;;;;5045622;28;20200;-61
2023/05/15 09:36:35;;;;;;;17.45;15.85;;;;;;;;;;5049561;28;20298;-61
2023/05/15 09:39:03;;;;;;;17.98;16.35;;;;;;;;;;5047445;28;20231;-61
2023/05/15 09:41:30;;;;;;;17.27;15.68;;;;;;;;;;5047011;28;20223;-61
2023/05/15 09:43:58;;;;;;;14.20;13.00;;;;;;;;;;5048464;28;20207;-61
2023/05/15 09:46:26;;;;;;;16.17;14.68;;;;;;;;;;5049795;28;20214;-61
2023/05/15 09:48:55;;;;;;;15.98;14.48;;;;;;;;;;5048296;28;20218;-61
2023/05/15 09:51:22;;;;;;;13.52;12.32;;;;;;;;;;5048343;28;20222;-61
2023/05/15 09:53:50;;;;;;;14.82;13.48;;;;;;;;;;5050335;28;20212;-61
2023/05/15 09:56:17;;;;;;;16.30;14.77;;;;;;;;;;5049536;28;20199;-62
2023/05/15 09:58:53;;;;;;;15.60;14.20;;;;;;;;;;5050279;28;20203;-62
2023/05/15 10:01:22;;;;;;;15.55;14.07;;;;;;;;;;5048644;28;20203;-62
2023/05/15 10:03:57;;;;;;;15.80;14.40;;;;;;;;;;5049372;28;20203;-62
2023/05/15 10:06:25;;;;;;;14.45;13.13;;;;;;;;;;5049251;28;20199;-62
2023/05/15 10:08:53;;;;;;;15.43;13.93;;;;;;;;;;5049920;28;20204;-62
2023/05/15 10:11:20;;;;;;;14.40;13.07;;;;;;;;;;5045630;28;20211;-61
2023/05/15 10:13:48;;;;;;;13.95;12.55;;;;;;;;;;5044647;28;20196;-62
2023/05/15 10:16:15;;;;;;;15.30;13.90;;;;;;;;;;5047107;28;20235;-62
2023/05/15 10:18:45;;;;;;;14.52;13.13;;;;;;;;;;5048152;28;20203;-61
2023/05/15 10:21:13;;;;;;;13.57;12.30;;;;;;;;;;5044287;28;20220;-61
2023/05/15 10:23:41;;;;;;;13.13;12.02;;;;;;;;;;5045693;28;20208;-61
2023/05/15 10:26:11;;;;;;;13.48;12.30;;;;;;;;;;5045975;28;20203;-61
2023/05/15 10:28:39;;;;;;;14.23;13.02;;;;;;;;;;5049375;28;20210;-61
2023/05/15 10:31:07;;;;;;;13.75;12.55;;;;;;;;;;5048972;28;20203;-62
2023/05/15 10:33:35;;;;;;;13.60;12.35;;;;;;;;;;5045531;28;20200;-61
2023/05/15 10:36:04;;;;;;;12.57;11.35;;;;;;;;;;5045127;28;20199;-61
2023/05/15 10:38:32;;;;;;;11.70;10.52;;;;;;;;;;5043030;28;20196;-61
2023/05/15 10:41:00;;;;;;;9.15;8.45;;;;;;;;;;5049107;28;20215;-61
2023/05/15 10:43:29;;;;;;;10.88;9.27;;;;;;;;;;5050308;28;20200;-61
2023/05/15 10:45:56;;;;;;;10.13;9.13;;;;;;;;;;5050524;28;20214;-61
2023/05/15 10:48:23;;;;;;;10.13;9.15;;;;;;;;;;5044159;28;20196;-65
2023/05/15 10:50:50;;;;;;;8.95;8.25;;;;;;;;;;5048930;28;20187;-65
2023/05/15 10:53:19;;;;;;;8.85;8.05;;;;;;;;;;5046492;28;20239;-66
2023/05/15 10:55:49;;;;;;;6.90;6.18;;;;;;;;;;5050458;28;20203;-65
2023/05/15 10:58:16;;;;;;;4.85;4.35;;;;;;;;;;5044524;28;20294;-65
2023/05/15 11:00:44;;;;;;;4.90;4.50;;;;;;;;;;5046534;28;20220;-66
2023/05/15 11:03:14;;;;;;;4.32;3.92;;;;;;;;;;5044833;28;20215;-66
2023/05/15 11:06:00;;;;;;;4.95;4.55;;;;;;;;;;5050606;28;20230;-65
2023/05/15 11:08:28;;;;;;;4.72;4.32;;;;;;;;;;5049163;28;20209;-67
2023/05/15 11:10:56;;;;;;;6.90;5.05;;;;;;;;;;5051185;28;20203;-68
2023/05/15 11:13:23;;;;;;;8.13;5.57;;;;;;;;;;5045429;28;20207;-66
2023/05/15 11:15:50;;;;;;;6.30;5.35;;;;;;;;;;5048919;28;20293;-66
2023/05/15 11:18:17;;;;;;;5.10;4.60;;;;;;;;;;5049944;28;20199;-66
2023/05/15 11:20:59;;;;;;;4.80;4.10;;;;;;;;;;5048091;28;20199;-66
2023/05/15 11:23:26;;;;;;;4.40;4.10;;;;;;;;;;5044179;28;20214;-66
2023/05/15 11:26:00;;;;;;;5.15;4.72;;;;;;;;;;5046694;28;20204;-66
2023/05/15 11:28:28;;;;;;;4.63;4.32;;;;;;;;;;5050242;28;20204;-66
2023/05/15 11:31:01;;;;;;;4.50;4.10;;;;;;;;;;5050530;28;20203;-66
2023/05/15 11:33:31;;;;;;;4.72;3.92;;;;;;;;;;5048325;28;20203;-66
2023/05/15 11:35:58;;;;;;;3.70;3.50;;;;;;;;;;5047151;28;20268;-66
2023/05/15 11:38:26;;;;;;;4.47;4.15;;;;;;;;;;5048523;28;20202;-66
2023/05/15 11:40:55;;;;;;;4.80;4.40;;;;;;;;;;5049445;28;20212;-66
2023/05/15 11:43:24;;;;;;;6.22;5.43;;;;;;;;;;5045922;28;20199;-66
2023/05/15 11:45:54;;;;;;;4.63;4.22;;;;;;;;;;5047813;28;20212;-66
2023/05/15 11:48:22;;;;;;;4.32;3.92;;;;;;;;;;5047874;28;20253;-66
2023/05/15 11:50:49;;;;;;;5.22;4.65;;;;;;;;;;5046688;28;20210;-66
2023/05/15 11:53:17;;;;;;;4.45;4.05;;;;;;;;;;5044996;28;20239;-66
2023/05/15 11:55:45;;;;;;;3.65;3.35;;;;;;;;;;5043575;28;20218;-66
2023/05/15 11:58:13;;;;;;;3.45;3.25;;;;;;;;;;5043711;28;20207;-66
2023/05/15 12:00:41;;;;;;;5.28;3.70;;;;;;;;;;5040431;28;20203;-66
2023/05/15 12:03:12;;;;;;;4.35;3.95;;;;;;;;;;5047568;28;20203;-66
2023/05/15 12:05:41;;;;;;;4.30;4.00;;;;;;;;;;5045847;28;20211;-66
2023/05/15 12:08:10;;;;;;;4.20;3.70;;;;;;;;;;5044091;28;20338;-66
2023/05/15 12:10:40;;;;;;;4.70;4.30;;;;;;;;;;5045123;28;20257;-66
2023/05/15 12:13:08;;;;;;;4.90;4.50;;;;;;;;;;5046487;28;20199;-66
2023/05/15 12:15:38;;;;;;;4.63;4.32;;;;;;;;;;5032512;28;20207;-66
2023/05/15 12:18:07;;;;;;;4.60;4.30;;;;;;;;;;5044551;28;20296;-66
2023/05/15 12:20:35;;;;;;;3.92;3.63;;;;;;;;;;5043087;28;20203;-67
2023/05/15 12:23:02;;;;;;;4.45;4.15;;;;;;;;;;5041986;28;20240;-67
2023/05/15 12:25:30;;;;;;;5.38;4.78;;;;;;;;;;5042840;28;20200;-67
2023/05/15 12:27:57;;;;;;;4.38;4.00;;;;;;;;;;5046798;28;20214;-67
2023/05/15 12:30:25;;;;;;;5.00;4.50;;;;;;;;;;5047486;28;20211;-67
2023/05/15 12:32:52;;;;;;;5.85;5.30;;;;;;;;;;5047563;28;20235;-67
2023/05/15 12:35:21;;;;;;;5.00;4.60;;;;;;;;;;5041219;28;20240;-67
2023/05/15 12:37:48;;;;;;;6.05;5.45;;;;;;;;;;5043521;28;20215;-67
2023/05/15 12:40:15;;;;;;;5.55;5.05;;;;;;;;;;5034729;28;20207;-67
2023/05/15 12:42:43;;;;;;;7.45;5.38;;;;;;;;;;5041665;28;20216;-67
2023/05/15 12:45:14;;;;;;;6.03;5.45;;;;;;;;;;5045143;28;20329;-67
2023/05/15 12:47:42;;;;;;;5.63;5.07;;;;;;;;;;5041899;28;20203;-67
2023/05/15 12:50:13;;;;;;;6.20;5.60;;;;;;;;;;5041565;28;20196;-66
2023/05/15 12:52:46;;;;;;;5.38;4.88;;;;;;;;;;5046160;28;20191;-67
2023/05/15 12:55:16;;;;;;;5.82;4.60;;;;;;;;;;5039880;28;20208;-67
2023/05/15 12:57:43;;;;;;;5.82;5.38;;;;;;;;;;5041690;28;20208;-67
2023/05/15 13:00:11;;;;;;;5.60;5.10;;;;;;;;;;5044677;28;20192;-67
2023/05/15 13:02:38;;;;;;;5.30;4.90;;;;;;;;;;5046589;28;20227;-67
2023/05/15 13:05:06;;;;;;;5.55;5.15;;;;;;;;;;5051177;28;20204;-67
2023/05/15 13:07:34;;;;;;;5.00;4.60;;;;;;;;;;5051400;28;20212;-67
2023/05/15 13:10:10;;;;;;;5.93;5.43;;;;;;;;;;5052800;28;20207;-67
2023/05/15 13:12:37;;;;;;;5.20;4.80;;;;;;;;;;5050447;28;20203;-67
2023/05/15 13:15:05;;;;;;;5.70;5.20;;;;;;;;;;5052378;28;20215;-67
2023/05/15 13:17:33;;;;;;;6.22;5.65;;;;;;;;;;5051638;28;20243;-67
2023/05/15 13:20:01;;;;;;;5.80;5.05;;;;;;;;;;5050853;28;20203;-67
2023/05/15 13:22:28;;;;;;;5.03;4.63;;;;;;;;;;5046666;28;20238;-67
2023/05/15 13:24:57;;;;;;;5.65;5.18;;;;;;;;;;5048281;28;20215;-66
2023/05/15 13:27:26;;;;;;;5.70;5.20;;;;;;;;;;5044507;28;20206;-67
2023/05/15 13:29:53;;;;;;;4.97;4.43;;;;;;;;;;5048286;28;20208;-67
2023/05/15 13:32:20;;;;;;;4.65;4.20;;;;;;;;;;5047413;28;20202;-67
2023/05/15 13:34:47;;;;;;;4.35;3.95;;;;;;;;;;5039655;28;20212;-67
2023/05/15 13:37:15;;;;;;;4.32;4.03;;;;;;;;;;5044717;28;20211;-67
2023/05/15 13:39:42;;;;;;;3.67;3.38;;;;;;;;;;5042506;28;20208;-67
2023/05/15 13:42:09;;;;;;;4.25;3.85;;;;;;;;;;5049524;28;20227;-67
2023/05/15 13:44:38;;;;;;;4.20;3.85;;;;;;;;;;5045639;28;20200;-67
2023/05/15 13:47:05;;;;;;;3.65;3.45;;;;;;;;;;5037641;28;20212;-67
2023/05/15 13:49:32;;;;;;;3.63;3.33;;;;;;;;;;5039186;28;20203;-67
2023/05/15 13:51:59;;;;;;;4.13;3.50;;;;;;;;;;5041517;28;20246;-67
2023/05/15 13:54:27;;;;;;;3.70;3.33;;;;;;;;;;5043367;28;20207;-67
2023/05/15 13:56:54;;;;;;;5.35;3.40;;;;;;;;;;5043352;28;20199;-67
2023/05/15 13:59:21;;;;;;;3.88;3.58;;;;;;;;;;5037765;28;20203;-67
2023/05/15 14:01:50;;;;;;;3.90;3.47;;;;;;;;;;5048474;28;20211;-67
2023/05/15 14:04:17;;;;;;;5.40;3.63;;;;;;;;;;5042732;28;20203;-67
2023/05/15 14:06:45;;;;;;;4.35;3.20;;;;;;;;;;5044051;28;20204;-67
2023/05/15 14:09:12;;;;;;;3.67;3.35;;;;;;;;;;5040041;28;20211;-67
2023/05/15 14:11:39;;;;;;;3.85;3.53;;;;;;;;;;5043480;28;20207;-67
2023/05/15 14:14:06;;;;;;;4.22;3.83;;;;;;;;;;5042591;28;20211;-67
2023/05/15 14:16:33;;;;;;;5.00;3.70;;;;;;;;;;5044181;28;20235;-67
2023/05/15 14:19:02;;;;;;;4.32;3.38;;;;;;;;;;5042960;28;20200;-67
2023/05/15 14:21:30;;;;;;;3.72;3.42;;;;;;;;;;5050262;28;20207;-67
2023/05/15 14:23:57;;;;;;;5.13;3.47;;;;;;;;;;5046939;28;20210;-67
2023/05/15 14:26:24;;;;;;;6.28;3.65;;;;;;;;;;5048993;28;20291;-67
2023/05/15 14:28:52;;;;;;;4.13;3.72;;;;;;;;;;5048699;28;20273;-67